Time;durP1;ratioP1;P1;durP2;ratioP2;P2;SDS_P1;SDS_P2;PMS_P1;PMS_P2;Temp;Humidity;BMP_temperature;BMP_pressure;BME280_temperature;BME280_humidity;BME280_pressure;Samples;Min_cycle;Max_cycle;Signal;HPM_P1;HPM_P2
2022/09/10 00:00:42;;;;;;;2.57;1.27;;;;;;;14.01;100.00;100474.16;6045329;28;20053;-65
2022/09/10 00:03:37;;;;;;;3.35;1.23;;;;;;;13.95;100.00;100490.84;6046068;28;20041;-64
2022/09/10 00:06:34;;;;;;;3.07;1.47;;;;;;;14.05;100.00;100488.00;6046309;28;20688;-65
2022/09/10 00:09:29;;;;;;;1.70;0.80;;;;;;;13.57;100.00;100491.66;6046086;28;20420;-65
2022/09/10 00:12:24;;;;;;;1.40;0.83;;;;;;;13.57;100.00;100486.31;6039571;28;20077;-65
2022/09/10 00:15:20;;;;;;;2.43;1.00;;;;;;;13.89;100.00;100470.22;6045826;28;20065;-65
2022/09/10 00:18:18;;;;;;;3.80;1.48;;;;;;;14.04;100.00;100481.81;6045974;28;20033;-65
2022/09/10 00:21:17;;;;;;;2.65;1.10;;;;;;;13.87;100.00;100480.22;6045194;28;20080;-65
2022/09/10 00:24:12;;;;;;;2.53;1.02;;;;;;;14.06;100.00;100469.13;6046123;28;20065;-64
2022/09/10 00:27:08;;;;;;;2.25;1.20;;;;;;;14.02;100.00;100481.13;6044626;28;20071;-64
2022/09/10 00:30:04;;;;;;;3.25;0.98;;;;;;;14.09;100.00;100474.13;6041078;28;20033;-66
2022/09/10 00:32:59;;;;;;;2.15;0.93;;;;;;;13.93;100.00;100482.19;6045796;28;20029;-65
2022/09/10 00:35:56;;;;;;;2.47;1.00;;;;;;;13.88;100.00;100484.56;6050354;28;20432;-65
2022/09/10 00:38:53;;;;;;;2.17;1.10;;;;;;;13.95;100.00;100495.34;6045759;28;20281;-65
2022/09/10 00:41:51;;;;;;;1.60;1.00;;;;;;;13.84;100.00;100490.38;6040832;28;20120;-64
2022/09/10 00:44:46;;;;;;;4.00;1.20;;;;;;;13.95;100.00;100498.00;6047901;28;20026;-65
2022/09/10 00:47:45;;;;;;;1.95;1.02;;;;;;;13.80;100.00;100481.09;6050158;28;20049;-65
2022/09/10 00:50:42;;;;;;;3.03;1.40;;;;;;;13.66;100.00;100487.97;6049257;28;20064;-64
2022/09/10 00:53:38;;;;;;;3.03;1.20;;;;;;;13.89;100.00;100502.19;6048838;28;20042;-65
2022/09/10 00:56:34;;;;;;;3.92;0.98;;;;;;;13.96;100.00;100497.84;6040770;28;20035;-65
2022/09/10 00:59:30;;;;;;;3.70;1.30;;;;;;;13.83;100.00;100492.25;6047605;28;20034;-65
2022/09/10 01:02:25;;;;;;;4.10;1.20;;;;;;;13.92;100.00;100491.19;6047767;28;20030;-65
2022/09/10 01:05:22;;;;;;;3.03;1.10;;;;;;;13.83;100.00;100489.59;6049483;28;20034;-66
2022/09/10 01:08:18;;;;;;;1.67;1.00;;;;;;;13.74;100.00;100490.59;6049662;28;20030;-64
2022/09/10 01:11:50;;;;;;;1.20;0.75;;;;;;;13.54;100.00;100489.31;6048996;28;20030;-64
2022/09/10 01:15:01;;;;;;;2.03;1.00;;;;;;;13.53;100.00;100485.00;6064666;28;20029;-65
2022/09/10 01:18:11;;;;;;;1.25;0.70;;;;;;;13.39;100.00;100494.53;6049243;28;20025;-65
2022/09/10 01:21:23;;;;;;;2.13;0.88;;;;;;;13.49;100.00;100499.66;6048810;28;20038;-65
2022/09/10 01:24:31;;;;;;;3.08;0.75;;;;;;;13.95;100.00;100496.19;6064198;28;20386;-65
2022/09/10 01:27:40;;;;;;;1.52;0.75;;;;;;;14.08;100.00;100491.13;6049038;28;20029;-64
2022/09/10 01:30:41;;;;;;;2.00;0.80;;;;;;;14.09;100.00;100506.13;6048216;28;20037;-64
2022/09/10 01:33:42;;;;;;;3.25;1.25;;;;;;;13.99;100.00;100497.50;6062473;28;20155;-64
2022/09/10 01:36:40;;;;;;;0.88;0.65;;;;;;;13.97;100.00;100499.50;6047330;28;20044;-65
2022/09/10 01:39:36;;;;;;;1.83;0.70;;;;;;;13.97;100.00;100493.34;6045516;28;20030;-65
2022/09/10 01:42:32;;;;;;;1.85;0.70;;;;;;;14.06;99.72;100503.81;6062206;28;20038;-64
2022/09/10 01:45:28;;;;;;;4.68;1.05;;;;;;;14.06;98.99;100498.47;6047774;28;20030;-65
2022/09/10 01:48:41;;;;;;;2.25;0.90;;;;;;;14.18;98.38;100509.59;6048551;28;20030;-64
2022/09/10 01:52:11;;;;;;;5.97;1.30;;;;;;;14.11;98.21;100496.09;6048040;28;20124;-65
2022/09/10 01:55:40;;;;;;;5.40;1.55;;;;;;;14.23;98.52;100510.72;6052827;28;20220;-64
2022/09/10 01:58:41;;;;;;;3.72;1.25;;;;;;;14.14;97.80;100511.75;6047278;28;20029;-65
2022/09/10 02:01:44;;;;;;;3.25;1.17;;;;;;;13.90;97.77;100498.53;6062768;28;20453;-66
2022/09/10 02:04:42;;;;;;;1.25;0.80;;;;;;;13.98;98.07;100506.50;6047051;28;20121;-65
2022/09/10 02:07:38;;;;;;;2.47;1.00;;;;;;;14.07;98.38;100510.81;6046121;28;20034;-65
2022/09/10 02:10:33;;;;;;;6.18;1.30;;;;;;;14.16;97.37;100498.25;6047474;28;20095;-65
2022/09/10 02:13:29;;;;;;;0.77;0.68;;;;;;;14.29;96.64;100518.00;6046700;28;20041;-64
2022/09/10 02:16:31;;;;;;;2.17;0.90;;;;;;;14.25;96.51;100500.72;6046455;28;20033;-64
2022/09/10 02:19:26;;;;;;;2.60;0.80;;;;;;;14.20;96.94;100500.41;6046936;28;20096;-65
2022/09/10 02:22:22;;;;;;;1.67;0.70;;;;;;;14.21;96.93;100512.72;6046532;28;20041;-65
2022/09/10 02:25:18;;;;;;;3.08;1.00;;;;;;;14.22;97.05;100509.06;6062968;28;20026;-64
2022/09/10 02:28:14;;;;;;;3.13;0.98;;;;;;;14.25;96.26;100508.72;6047362;28;20034;-64
2022/09/10 02:31:09;;;;;;;2.00;0.90;;;;;;;14.43;95.75;100521.00;6046800;28;20045;-66
2022/09/10 02:34:05;;;;;;;3.57;0.90;;;;;;;14.43;95.05;100515.66;6047522;28;20284;-64
2022/09/10 02:37:01;;;;;;;3.35;1.00;;;;;;;14.46;94.98;100526.00;6037875;28;20069;-64
2022/09/10 02:39:57;;;;;;;3.80;1.08;;;;;;;14.48;94.94;100523.97;6062210;28;20057;-65
2022/09/10 02:42:54;;;;;;;3.47;1.00;;;;;;;14.46;94.34;100520.66;6046583;28;20435;-64
2022/09/10 02:45:50;;;;;;;4.25;1.08;;;;;;;14.37;94.66;100525.19;6047555;28;20030;-64
2022/09/10 02:48:45;;;;;;;2.22;1.10;;;;;;;14.39;94.78;100522.34;6046100;28;20041;-65
2022/09/10 02:51:41;;;;;;;2.27;0.90;;;;;;;14.37;94.81;100529.69;6034454;28;20046;-64
2022/09/10 02:54:36;;;;;;;1.88;0.70;;;;;;;14.35;95.17;100518.38;6047130;28;20033;-64
2022/09/10 02:57:31;;;;;;;2.22;0.70;;;;;;;14.25;95.06;100500.72;6047219;28;20041;-65
2022/09/10 03:00:27;;;;;;;3.63;1.00;;;;;;;14.32;95.58;100512.34;6046414;28;20508;-64
2022/09/10 03:03:22;;;;;;;1.70;0.77;;;;;;;14.26;95.25;100498.88;6046146;28;20271;-64
2022/09/10 03:06:18;;;;;;;2.83;0.73;;;;;;;14.32;95.47;100509.69;6046679;28;20268;-65
2022/09/10 03:09:13;;;;;;;2.65;0.95;;;;;;;14.29;95.70;100510.00;6046903;28;20026;-65
2022/09/10 03:12:08;;;;;;;5.17;1.00;;;;;;;14.34;95.42;100498.03;6045913;28;20462;-64
2022/09/10 03:15:04;;;;;;;2.57;0.90;;;;;;;14.34;95.74;100506.03;6046814;28;20032;-64
2022/09/10 03:17:59;;;;;;;1.67;0.82;;;;;;;14.25;95.21;100502.53;6045801;28;20049;-65
2022/09/10 03:21:05;;;;;;;6.37;1.10;;;;;;;14.26;96.20;100510.38;6045745;28;20030;-64
2022/09/10 03:24:01;;;;;;;1.83;0.95;;;;;;;14.30;95.97;100511.69;6046579;28;20038;-64
2022/09/10 03:26:56;;;;;;;3.22;1.15;;;;;;;14.25;96.75;100514.03;6046013;28;20064;-65
2022/09/10 03:29:52;;;;;;;3.15;1.25;;;;;;;14.15;96.61;100513.44;6046410;28;20033;-65
2022/09/10 03:32:47;;;;;;;3.47;0.93;;;;;;;14.19;96.78;100519.22;6044843;28;20837;-64
2022/09/10 03:35:43;;;;;;;2.05;1.10;;;;;;;14.13;96.86;100517.28;6046162;28;20080;-64
2022/09/10 03:38:40;;;;;;;2.45;1.10;;;;;;;14.16;97.52;100527.56;6046432;28;20060;-64
2022/09/10 03:41:36;;;;;;;5.35;1.17;;;;;;;14.14;97.37;100527.75;6045217;28;20037;-65
2022/09/10 03:44:32;;;;;;;3.15;1.00;;;;;;;14.09;97.92;100530.13;6046200;28;20053;-64
2022/09/10 03:47:27;;;;;;;3.33;0.98;;;;;;;14.13;97.68;100539.44;6031879;28;20109;-64
2022/09/10 03:50:23;;;;;;;4.03;1.10;;;;;;;14.03;97.45;100525.47;6045480;28;20423;-65
2022/09/10 03:53:19;;;;;;;1.63;1.00;;;;;;;14.03;98.13;100529.97;6046228;28;20057;-64
2022/09/10 03:56:18;;;;;;;2.53;1.13;;;;;;;13.93;98.62;100529.34;6045751;28;20315;-64
2022/09/10 03:59:14;;;;;;;5.68;1.13;;;;;;;13.85;99.11;100530.22;6046228;28;20034;-64
2022/09/10 04:02:09;;;;;;;3.47;1.03;;;;;;;13.85;99.05;100529.38;6044325;28;20045;-63
2022/09/10 04:05:05;;;;;;;1.70;1.03;;;;;;;13.81;99.35;100531.53;6046014;28;20053;-65
2022/09/10 04:08:01;;;;;;;2.55;1.33;;;;;;;13.80;99.10;100529.91;6045948;28;20037;-64
2022/09/10 04:11:01;;;;;;;2.42;0.98;;;;;;;13.84;99.71;100538.38;6049804;28;20025;-65
2022/09/10 04:13:57;;;;;;;3.85;1.17;;;;;;;13.81;99.32;100526.22;6049848;28;20037;-64
2022/09/10 04:16:53;;;;;;;3.50;0.93;;;;;;;13.77;99.26;100527.56;6050302;28;20426;-64
2022/09/10 04:19:49;;;;;;;2.27;1.10;;;;;;;13.86;99.64;100537.19;6050767;28;20034;-65
2022/09/10 04:22:46;;;;;;;2.65;1.23;;;;;;;13.89;99.48;100536.84;6050072;28;20026;-65
2022/09/10 04:25:41;;;;;;;2.83;0.95;;;;;;;14.04;99.17;100535.16;6050708;28;20124;-65
2022/09/10 04:28:37;;;;;;;2.37;1.10;;;;;;;13.98;98.97;100519.00;6049611;28;20674;-64
2022/09/10 04:31:32;;;;;;;3.22;1.02;;;;;;;14.05;98.45;100528.00;6049399;28;20091;-64
2022/09/10 04:34:27;;;;;;;4.50;1.47;;;;;;;13.97;98.46;100522.69;6050090;28;20037;-64
2022/09/10 04:37:23;;;;;;;2.60;1.07;;;;;;;14.01;98.36;100535.50;6049992;28;20034;-64
2022/09/10 04:40:18;;;;;;;3.08;1.27;;;;;;;13.89;98.54;100523.53;6049551;28;20399;-65
2022/09/10 04:43:14;;;;;;;1.33;1.00;;;;;;;13.83;99.17;100524.25;6040474;28;20042;-65
2022/09/10 04:46:09;;;;;;;2.83;1.13;;;;;;;13.79;99.12;100524.72;6045813;28;20474;-65
2022/09/10 04:49:04;;;;;;;4.00;0.90;;;;;;;13.68;99.42;100531.25;6050005;28;20045;-66
2022/09/10 04:52:00;;;;;;;4.40;1.30;;;;;;;13.69;99.82;100548.91;6049029;28;20040;-64
2022/09/10 04:54:55;;;;;;;1.92;1.00;;;;;;;13.59;100.00;100529.59;6049790;28;20465;-63
2022/09/10 04:57:50;;;;;;;2.53;0.90;;;;;;;13.63;100.00;100538.94;6048770;28;20041;-65
2022/09/10 05:00:45;;;;;;;2.33;1.07;;;;;;;13.65;100.00;100539.59;6048694;28;20068;-64
2022/09/10 05:03:41;;;;;;;1.43;1.07;;;;;;;13.94;100.00;100542.50;6049665;28;20791;-64
2022/09/10 05:06:36;;;;;;;2.57;1.00;;;;;;;13.96;99.47;100539.69;6049320;28;20041;-65
2022/09/10 05:09:32;;;;;;;8.57;2.70;;;;;;;13.84;99.30;100525.88;6049727;28;20799;-64
2022/09/10 05:12:27;;;;;;;3.13;1.00;;;;;;;14.01;99.48;100530.16;6048160;28;20029;-65
2022/09/10 05:15:23;;;;;;;4.83;0.97;;;;;;;14.11;98.51;100544.09;6049076;28;20080;-64
2022/09/10 05:18:18;;;;;;;2.17;1.10;;;;;;;13.95;98.92;100527.34;6048007;28;20026;-64
2022/09/10 05:21:13;;;;;;;2.03;1.10;;;;;;;14.09;99.38;100538.13;6047067;28;20269;-64
2022/09/10 05:24:09;;;;;;;1.90;1.03;;;;;;;14.14;98.71;100543.75;6048938;28;20579;-65
2022/09/10 05:27:05;;;;;;;2.72;1.00;;;;;;;14.42;98.18;100538.84;6048160;28;20385;-65
2022/09/10 05:30:01;;;;;;;5.73;1.00;;;;;;;14.54;97.32;100529.41;6048679;28;20042;-64
2022/09/10 05:32:56;;;;;;;5.88;1.35;;;;;;;14.49;96.00;100542.47;6048396;28;20026;-63
2022/09/10 05:35:51;;;;;;;5.82;1.10;;;;;;;14.50;95.66;100535.28;6049045;28;20111;-66
2022/09/10 05:38:47;;;;;;;2.30;1.27;;;;;;;14.49;96.43;100552.28;6048906;28;20065;-65
2022/09/10 05:41:42;;;;;;;2.03;1.23;;;;;;;14.58;96.26;100540.56;6046281;28;20091;-64
2022/09/10 05:44:38;;;;;;;3.00;1.00;;;;;;;14.64;94.76;100540.72;6048329;28;20030;-64
2022/09/10 05:47:33;;;;;;;4.20;1.37;;;;;;;14.62;95.49;100536.56;6048552;28;20034;-65
2022/09/10 05:50:29;;;;;;;3.00;1.25;;;;;;;14.66;95.28;100530.69;6047684;28;20525;-65
2022/09/10 05:53:24;;;;;;;2.65;1.67;;;;;;;14.78;95.18;100539.13;6047404;28;20424;-64
2022/09/10 05:56:19;;;;;;;4.20;1.13;;;;;;;14.66;95.03;100538.69;6048185;28;20045;-64
2022/09/10 05:59:15;;;;;;;2.67;1.20;;;;;;;14.80;94.59;100550.44;6048335;28;20076;-64
2022/09/10 06:02:17;;;;;;;3.23;1.23;;;;;;;14.96;94.35;100557.50;6047664;28;20025;-64
2022/09/10 06:05:14;;;;;;;3.55;1.00;;;;;;;14.94;93.74;100544.34;6047912;28;20096;-66
2022/09/10 06:08:09;;;;;;;2.50;1.35;;;;;;;15.11;93.68;100545.84;6047261;28;20033;-65
2022/09/10 06:11:05;;;;;;;1.40;0.80;;;;;;;15.09;93.06;100534.53;6047329;28;20073;-65
2022/09/10 06:14:00;;;;;;;4.25;1.55;;;;;;;15.07;93.38;100538.41;6047972;28;20030;-65
2022/09/10 06:16:55;;;;;;;3.47;1.17;;;;;;;15.29;92.98;100557.09;6047868;28;20033;-65
2022/09/10 06:19:51;;;;;;;2.37;1.10;;;;;;;15.22;92.85;100550.78;6044568;28;20030;-65
2022/09/10 06:22:46;;;;;;;7.67;1.77;;;;;;;15.37;92.32;100543.66;6024445;28;20102;-64
2022/09/10 06:25:42;;;;;;;2.77;1.13;;;;;;;15.41;90.77;100547.59;6048009;28;20616;-64
2022/09/10 06:28:37;;;;;;;3.60;0.90;;;;;;;15.41;90.84;100539.59;6047598;28;20033;-64
2022/09/10 06:31:33;;;;;;;2.60;1.03;;;;;;;15.56;90.68;100557.53;6046788;28;20033;-64
2022/09/10 06:34:28;;;;;;;2.97;0.93;;;;;;;15.64;89.59;100549.44;6047249;28;20271;-64
2022/09/10 06:37:24;;;;;;;2.50;1.30;;;;;;;15.83;88.98;100551.56;6046785;28;20029;-64
2022/09/10 06:40:19;;;;;;;3.67;1.00;;;;;;;15.89;87.82;100554.34;6046867;28;20030;-64
2022/09/10 06:43:16;;;;;;;3.10;1.10;;;;;;;16.04;87.29;100562.34;6047784;28;20041;-64
2022/09/10 06:46:15;;;;;;;3.28;1.10;;;;;;;16.03;87.02;100561.50;6047607;28;20042;-65
2022/09/10 06:49:10;;;;;;;5.63;1.10;;;;;;;16.46;87.12;100570.53;6045940;28;20165;-65
2022/09/10 06:52:05;;;;;;;5.93;1.25;;;;;;;17.06;83.13;100564.84;6046070;28;20034;-64
2022/09/10 06:55:01;;;;;;;4.07;0.90;;;;;;;17.01;82.07;100567.25;6047031;28;20108;-65
2022/09/10 06:57:58;;;;;;;1.33;0.70;;;;;;;16.97;81.87;100565.16;6047516;28;20066;-64
2022/09/10 07:00:54;;;;;;;2.67;0.88;;;;;;;16.96;82.76;100580.38;6046373;28;20121;-64
2022/09/10 07:03:58;;;;;;;2.47;1.20;;;;;;;16.88;82.88;100563.59;6046841;28;20033;-64
2022/09/10 07:06:55;;;;;;;5.38;1.17;;;;;;;17.10;82.53;100582.19;6034159;28;20046;-65
2022/09/10 07:09:50;;;;;;;4.45;1.20;;;;;;;17.30;82.17;100587.72;6032990;28;20026;-65
2022/09/10 07:12:46;;;;;;;2.97;0.93;;;;;;;17.59;80.88;100581.41;6040422;28;20042;-65
2022/09/10 07:15:45;;;;;;;2.33;0.87;;;;;;;17.17;79.59;100579.56;6032918;28;20038;-63
2022/09/10 07:18:40;;;;;;;3.85;1.05;;;;;;;16.92;81.95;100587.16;6036008;28;20037;-65
2022/09/10 07:21:36;;;;;;;5.47;1.17;;;;;;;17.48;81.40;100587.25;6029613;28;20029;-65
2022/09/10 07:24:32;;;;;;;4.13;1.23;;;;;;;17.81;79.15;100570.44;6043138;28;20037;-64
2022/09/10 07:27:27;;;;;;;8.05;1.17;;;;;;;18.37;77.51;100581.06;6043086;28;20034;-63
2022/09/10 07:30:23;;;;;;;2.95;0.85;;;;;;;18.92;74.72;100571.97;6031562;28;20073;-64
2022/09/10 07:33:18;;;;;;;2.17;0.97;;;;;;;18.49;75.34;100578.66;6029356;28;20084;-64
2022/09/10 07:36:14;;;;;;;4.23;1.23;;;;;;;18.64;75.20;100588.25;6043084;28;20280;-64
2022/09/10 07:39:09;;;;;;;2.42;0.90;;;;;;;18.65;75.31;100581.81;6042123;28;20041;-64
2022/09/10 07:42:05;;;;;;;1.47;0.70;;;;;;;19.20;72.74;100590.63;6042276;28;20033;-64
2022/09/10 07:45:00;;;;;;;3.63;1.17;;;;;;;19.18;72.34;100600.78;6042296;28;20497;-65
2022/09/10 07:47:55;;;;;;;1.97;0.80;;;;;;;18.97;73.48;100591.84;6043502;28;20029;-65
2022/09/10 07:50:51;;;;;;;3.58;1.00;;;;;;;18.68;73.22;100604.78;6042631;28;20096;-65
2022/09/10 07:53:52;;;;;;;3.20;0.97;;;;;;;18.37;73.41;100602.56;6042944;28;20049;-64
2022/09/10 07:56:47;;;;;;;2.22;0.80;;;;;;;17.87;74.85;100606.38;6035039;28;20311;-65
2022/09/10 07:59:42;;;;;;;4.10;1.20;;;;;;;17.74;76.92;100607.13;6041509;28;20045;-64
2022/09/10 08:02:38;;;;;;;3.27;0.90;;;;;;;17.85;77.71;100614.59;6034839;28;20073;-65
2022/09/10 08:05:36;;;;;;;2.75;0.88;;;;;;;17.68;77.37;100607.91;6026360;28;20038;-64
2022/09/10 08:08:34;;;;;;;0.93;0.75;;;;;;;17.86;76.52;100610.06;6042043;28;20030;-66
2022/09/10 08:11:31;;;;;;;4.03;1.00;;;;;;;17.96;75.77;100613.25;6041260;28;20042;-64
2022/09/10 08:14:26;;;;;;;1.75;0.82;;;;;;;18.00;77.40;100611.00;6029580;28;20035;-64
2022/09/10 08:17:21;;;;;;;5.77;1.40;;;;;;;18.40;73.86;100621.75;6029162;28;20040;-64
2022/09/10 08:20:16;;;;;;;2.53;0.90;;;;;;;18.56;73.08;100603.72;6043871;28;20030;-65
2022/09/10 08:23:12;;;;;;;2.70;1.07;;;;;;;19.29;70.84;100616.31;6046015;28;20038;-65
2022/09/10 08:26:07;;;;;;;4.00;1.10;;;;;;;19.81;70.70;100621.72;6045585;28;20288;-64
2022/09/10 08:29:03;;;;;;;2.70;0.90;;;;;;;20.10;67.31;100623.97;6043308;28;20042;-65
2022/09/10 08:31:58;;;;;;;2.47;1.00;;;;;;;20.15;66.04;100626.03;6032999;28;20030;-65
2022/09/10 08:34:54;;;;;;;3.72;1.05;;;;;;;20.15;68.13;100640.34;6032633;28;20036;-65
2022/09/10 08:37:50;;;;;;;2.67;0.70;;;;;;;20.40;65.55;100629.75;6045112;28;20358;-65
2022/09/10 08:40:45;;;;;;;2.80;0.93;;;;;;;20.35;65.35;100631.41;6034085;28;20079;-66
2022/09/10 08:43:47;;;;;;;2.35;1.00;;;;;;;19.80;65.13;100622.78;6044949;28;20264;-65
2022/09/10 08:46:49;;;;;;;2.08;0.70;;;;;;;19.70;67.14;100643.06;6044842;28;20038;-64
2022/09/10 08:49:57;;;;;;;2.50;0.73;;;;;;;19.52;67.90;100630.22;6043703;28;20041;-64
2022/09/10 08:53:04;;;;;;;1.98;0.82;;;;;;;19.48;67.87;100640.56;6036904;28;20034;-65
2022/09/10 08:56:08;;;;;;;2.38;0.82;;;;;;;19.21;68.44;100636.16;6043778;28;20038;-64
2022/09/10 08:59:20;;;;;;;2.25;0.90;;;;;;;19.28;68.93;100626.22;6048940;28;20034;-66
2022/09/10 09:02:28;;;;;;;2.35;0.73;;;;;;;19.85;65.92;100631.03;6047483;28;20509;-65
2022/09/10 09:05:27;;;;;;;3.33;1.17;;;;;;;19.86;66.72;100624.63;6049565;28;20037;-65
2022/09/10 09:08:27;;;;;;;1.00;0.65;;;;;;;20.48;63.89;100625.97;6049559;28;20061;-65
2022/09/10 09:11:31;;;;;;;5.03;1.00;;;;;;;21.01;64.34;100631.97;6049342;28;20462;-65
2022/09/10 09:14:49;;;;;;;5.10;0.82;;;;;;;20.47;63.67;100627.00;6049551;28;20141;-64
2022/09/10 09:17:53;;;;;;;1.85;1.10;;;;;;;19.57;66.35;100636.63;6045596;28;20036;-65
2022/09/10 09:20:56;;;;;;;2.38;0.88;;;;;;;19.26;67.92;100643.59;6036173;28;20037;-65
2022/09/10 09:23:54;;;;;;;4.47;0.80;;;;;;;18.92;68.23;100629.25;6049549;28;20466;-65
2022/09/10 09:26:53;;;;;;;2.13;0.80;;;;;;;19.12;68.06;100634.69;6049261;28;20459;-64
2022/09/10 09:29:54;;;;;;;2.13;0.73;;;;;;;19.51;66.56;100628.56;6048931;28;20030;-66
2022/09/10 09:32:50;;;;;;;2.22;0.88;;;;;;;19.87;64.08;100631.66;6047389;28;20037;-65
2022/09/10 09:35:58;;;;;;;1.30;0.90;;;;;;;19.58;65.06;100634.78;6047608;28;20037;-64
2022/09/10 09:38:54;;;;;;;3.67;1.02;;;;;;;19.42;66.66;100635.19;6047893;28;20270;-65
2022/09/10 09:42:21;;;;;;;6.32;1.13;;;;;;;20.17;64.60;100634.72;6047930;28;20461;-65
2022/09/10 09:45:36;;;;;;;3.33;0.80;;;;;;;20.46;62.86;100611.91;6037143;28;20044;-64
2022/09/10 09:48:38;;;;;;;2.55;0.80;;;;;;;20.63;62.67;100631.91;6048600;28;20026;-65
2022/09/10 09:51:34;;;;;;;3.40;0.75;;;;;;;20.51;60.95;100614.78;6038687;28;20045;-64
2022/09/10 09:54:32;;;;;;;0.88;0.68;;;;;;;20.80;61.63;100619.63;6036726;28;20108;-65
2022/09/10 09:57:28;;;;;;;3.22;0.68;;;;;;;21.06;60.68;100614.06;6064803;28;20062;-65
2022/09/10 10:00:34;;;;;;;1.50;0.80;;;;;;;21.13;58.73;100614.91;6045311;28;20487;-64
2022/09/10 10:03:51;;;;;;;3.28;1.02;;;;;;;21.61;60.56;100617.03;6024319;28;20030;-64
2022/09/10 10:06:52;;;;;;;1.88;0.65;;;;;;;21.95;60.07;100605.78;6053339;28;20459;-65
2022/09/10 10:09:48;;;;;;;1.20;0.65;;;;;;;21.75;56.89;100605.09;6042403;28;20065;-65
2022/09/10 10:12:48;;;;;;;1.38;0.73;;;;;;;21.21;59.34;100601.16;6051560;28;20033;-66
2022/09/10 10:15:43;;;;;;;1.52;0.70;;;;;;;21.66;59.10;100609.94;6025044;28;20026;-64
2022/09/10 10:18:40;;;;;;;2.63;0.63;;;;;;;21.73;56.94;100597.22;6023857;28;20061;-65
2022/09/10 10:21:36;;;;;;;1.02;0.50;;;;;;;21.77;56.77;100586.78;6023210;28;20130;-65
2022/09/10 10:24:32;;;;;;;3.13;0.60;;;;;;;21.65;57.28;100596.69;6044081;28;20029;-64
2022/09/10 10:27:41;;;;;;;2.60;0.68;;;;;;;21.25;56.69;100588.88;6047190;28;20076;-64
2022/09/10 10:30:36;;;;;;;5.35;1.00;;;;;;;21.16;56.41;100598.31;6073371;28;20025;-64
2022/09/10 10:33:32;;;;;;;1.60;0.60;;;;;;;20.65;58.39;100602.91;6026516;28;20038;-65
2022/09/10 10:36:52;;;;;;;2.05;0.70;;;;;;;20.91;57.42;100589.28;6047335;28;20354;-64
2022/09/10 10:40:29;;;;;;;3.40;0.70;;;;;;;20.89;60.01;100598.63;6047271;28;20108;-64
2022/09/10 10:44:02;;;;;;;5.47;0.80;;;;;;;20.69;62.16;100598.72;6042519;28;20108;-65
2022/09/10 10:47:22;;;;;;;4.38;0.70;;;;;;;20.09;63.19;100595.38;6047066;28;20034;-65
2022/09/10 10:50:24;;;;;;;2.03;0.80;;;;;;;20.09;64.26;100589.16;6030485;28;20057;-65
2022/09/10 10:53:50;;;;;;;3.03;1.08;;;;;;;20.05;64.02;100604.94;6034321;28;20038;-65
2022/09/10 10:56:59;;;;;;;2.08;0.80;;;;;;;20.18;65.05;100599.53;6035246;28;20072;-64
2022/09/10 11:00:13;;;;;;;6.25;0.82;;;;;;;20.47;64.60;100600.91;6038436;28;20038;-65
2022/09/10 11:03:17;;;;;;;4.57;1.13;;;;;;;20.52;63.24;100594.88;6046862;28;20040;-66
2022/09/10 11:06:15;;;;;;;2.08;0.82;;;;;;;20.30;63.39;100596.22;6056548;28;20125;-65
2022/09/10 11:09:32;;;;;;;2.63;0.80;;;;;;;20.23;64.17;100600.72;6044707;28;20076;-65
2022/09/10 11:12:35;;;;;;;2.90;0.90;;;;;;;19.97;65.39;100613.25;6044853;28;20030;-65
2022/09/10 11:15:42;;;;;;;2.47;0.85;;;;;;;20.08;67.05;100601.81;6037251;28;20026;-65
2022/09/10 11:18:47;;;;;;;1.98;1.13;;;;;;;20.06;64.53;100594.97;6035458;28;20034;-65
2022/09/10 11:21:51;;;;;;;2.13;0.98;;;;;;;20.28;65.39;100598.25;6029074;28;20604;-65
2022/09/10 11:24:50;;;;;;;1.75;0.70;;;;;;;20.47;64.40;100597.38;6044818;28;20492;-65
2022/09/10 11:27:49;;;;;;;2.35;0.80;;;;;;;20.51;63.21;100587.84;6044323;28;20131;-65
2022/09/10 11:30:49;;;;;;;3.88;0.77;;;;;;;20.59;63.57;100595.69;6042386;28;20029;-65
2022/09/10 11:33:48;;;;;;;;;;;;;;;20.58;63.23;100594.00;6061721;28;20805;-66
2022/09/10 11:36:58;;;;;;;1.63;0.60;;;;;;;20.06;65.89;100576.13;6050346;28;19921;-64
2022/09/10 11:39:57;;;;;;;2.65;0.77;;;;;;;20.49;65.68;100592.63;6033318;28;20029;-65
2022/09/10 11:42:57;;;;;;;1.77;0.70;;;;;;;20.91;63.19;100583.06;6036375;28;20117;-65
2022/09/10 11:45:58;;;;;;;1.15;0.68;;;;;;;20.98;63.33;100579.28;6042667;28;20069;-65
2022/09/10 11:49:12;;;;;;;2.17;0.77;;;;;;;21.13;60.79;100590.63;6044088;28;20040;-65
2022/09/10 11:52:10;;;;;;;1.35;0.75;;;;;;;20.91;61.07;100580.38;6042468;28;20377;-64
2022/09/10 11:55:08;;;;;;;1.33;0.70;;;;;;;20.69;61.91;100563.69;6047848;28;20498;-64
2022/09/10 11:58:33;;;;;;;1.42;0.50;;;;;;;21.64;56.79;100576.13;6026674;28;20465;-65
2022/09/10 12:01:54;;;;;;;0.60;0.43;;;;;;;21.17;56.33;100567.56;6021442;28;20034;-64
2022/09/10 12:05:09;;;;;;;1.55;0.40;;;;;;;21.64;55.31;100581.50;6041274;28;20103;-64
2022/09/10 12:08:32;;;;;;;0.60;0.30;;;;;;;22.71;52.30;100564.78;6045277;28;20033;-65
2022/09/10 12:11:44;;;;;;;0.90;0.43;;;;;;;23.35;48.39;100572.16;6036356;28;20477;-66
2022/09/10 12:14:40;;;;;;;2.05;0.60;;;;;;;23.13;51.24;100559.16;6032750;28;20441;-65
2022/09/10 12:17:38;;;;;;;0.70;0.45;;;;;;;22.30;52.45;100560.91;6045524;28;20032;-65
2022/09/10 12:20:41;;;;;;;0.35;0.30;;;;;;;21.71;53.95;100560.69;6033850;28;20042;-65
2022/09/10 12:23:38;;;;;;;2.40;1.00;;;;;;;21.69;54.93;100565.47;6057710;28;20113;-65
2022/09/10 12:26:40;;;;;;;3.70;0.60;;;;;;;21.69;57.98;100558.22;6041744;28;20042;-65
2022/09/10 12:29:37;;;;;;;1.70;0.65;;;;;;;22.19;58.47;100553.56;6046244;28;20033;-64
2022/09/10 12:32:32;;;;;;;2.67;0.70;;;;;;;22.68;57.07;100565.25;6063997;28;20052;-64
2022/09/10 12:35:34;;;;;;;0.93;0.40;;;;;;;23.36;53.22;100558.41;6049683;28;20042;-65
2022/09/10 12:38:47;;;;;;;1.20;0.60;;;;;;;23.94;51.67;100550.34;6048706;28;20044;-65
2022/09/10 12:41:43;;;;;;;0.88;0.50;;;;;;;23.41;49.92;100557.72;6040380;28;20499;-65
2022/09/10 12:44:38;;;;;;;1.17;0.60;;;;;;;22.78;53.20;100560.09;6038944;28;20101;-65
2022/09/10 12:47:40;;;;;;;2.90;0.65;;;;;;;22.47;55.72;100559.25;6046588;28;20057;-65
2022/09/10 12:50:37;;;;;;;1.25;0.73;;;;;;;22.29;53.40;100545.75;6048593;28;20490;-65
2022/09/10 12:53:59;;;;;;;1.73;0.65;;;;;;;22.02;54.00;100555.22;6048228;28;20030;-64
2022/09/10 12:57:02;;;;;;;1.85;0.90;;;;;;;21.68;55.21;100559.28;6039438;28;20033;-66
2022/09/10 13:00:24;;;;;;;1.73;0.85;;;;;;;21.23;55.69;100555.91;6047252;28;20470;-64
2022/09/10 13:03:26;;;;;;;1.77;1.08;;;;;;;21.24;58.00;100546.78;6054961;28;20100;-65
2022/09/10 13:06:37;;;;;;;10.23;5.07;;;;;;;21.45;55.98;100547.44;6064250;28;20045;-65
2022/09/10 13:09:35;;;;;;;2.83;0.95;;;;;;;21.22;57.47;100556.97;6037326;28;20034;-65
2022/09/10 13:12:32;;;;;;;1.10;0.80;;;;;;;21.22;58.81;100559.66;6047145;28;20189;-65
2022/09/10 13:15:31;;;;;;;1.85;0.80;;;;;;;20.91;58.33;100540.75;6064927;28;20030;-66
2022/09/10 13:18:29;;;;;;;1.48;0.70;;;;;;;21.12;56.99;100553.91;6044634;28;20030;-65
2022/09/10 13:21:46;;;;;;;1.40;0.77;;;;;;;21.50;58.58;100553.00;6034918;28;20026;-65
2022/09/10 13:24:59;;;;;;;0.75;0.75;;;;;;;21.80;57.03;100557.47;6045671;28;20026;-65
2022/09/10 13:27:55;;;;;;;1.92;0.80;;;;;;;21.64;57.67;100535.63;6040770;28;20034;-66
2022/09/10 13:31:37;;;;;;;1.42;1.00;;;;;;;22.01;57.06;100553.56;6060190;28;20037;-65
2022/09/10 13:34:52;;;;;;;2.22;1.20;;;;;;;21.26;59.24;100539.28;6042706;28;20405;-65
2022/09/10 13:38:01;;;;;;;2.10;0.90;;;;;;;21.25;60.40;100542.22;6046235;28;20489;-65
2022/09/10 13:41:21;;;;;;;1.25;0.82;;;;;;;21.03;59.98;100549.81;6061971;28;20030;-65
2022/09/10 13:44:31;;;;;;;2.25;1.00;;;;;;;20.83;59.24;100535.63;6031309;28;20061;-65
2022/09/10 13:47:33;;;;;;;2.63;0.90;;;;;;;20.79;59.79;100553.25;6024508;28;20030;-64
2022/09/10 13:50:59;;;;;;;1.10;0.90;;;;;;;21.13;60.51;100550.19;6033821;28;20623;-65
2022/09/10 13:54:00;;;;;;;1.33;0.90;;;;;;;21.36;59.12;100550.41;6047964;28;20029;-65
2022/09/10 13:56:59;;;;;;;1.17;1.00;;;;;;;21.51;58.68;100535.75;6034232;28;20045;-65